Time;durP1;ratioP1;P1;durP2;ratioP2;P2;SDS_P1;SDS_P2;PMS_P1;PMS_P2;Temp;Humidity;BMP_temperature;BMP_pressure;BME280_temperature;BME280_humidity;BME280_pressure;Samples;Min_cycle;Max_cycle;Signal;HPM_P1;HPM_P2
2022/12/15 00:38:48;;;;;;;10.63;4.85;;;;;;;;;;5092590;27;20051;-76
2022/12/15 00:41:15;;;;;;;7.82;4.43;;;;;;;;;;5093984;27;20039;-76
2022/12/15 00:43:41;;;;;;;7.00;3.92;;;;;;;;;;5095235;27;20049;-76
2022/12/15 00:48:53;;;;;;;11.95;5.10;;;;;;;;;;5093064;27;20042;-77
2022/12/15 00:51:19;;;;;;;6.95;4.40;;;;;;;;;;5110412;27;20042;-75
2022/12/15 01:21:17;;;;;;;13.95;8.20;;;;;;;;;;5108633;27;20853;-75
2022/12/15 01:23:43;;;;;;;12.60;7.18;;;;;;;;;;5094537;27;20483;-75
2022/12/15 01:26:09;;;;;;;13.60;8.13;;;;;;;;;;5086830;27;20050;-75
2022/12/15 01:28:35;;;;;;;11.48;7.60;;;;;;;;;;5114481;27;20058;-75
2022/12/15 01:31:02;;;;;;;14.88;8.07;;;;;;;;;;5082466;27;20039;-76
2022/12/15 01:33:28;;;;;;;14.93;8.02;;;;;;;;;;5077445;27;20207;-77
2022/12/15 01:36:01;;;;;;;13.43;8.10;;;;;;;;;;5110432;27;20043;-74
2022/12/15 01:38:27;;;;;;;18.80;8.65;;;;;;;;;;5097230;27;20907;-74
2022/12/15 01:40:54;;;;;;;15.32;7.68;;;;;;;;;;5088378;27;20161;-74
2022/12/15 01:43:22;;;;;;;14.07;8.43;;;;;;;;;;5097331;27;20138;-74
2022/12/15 01:45:50;;;;;;;15.85;8.55;;;;;;;;;;5093794;27;20045;-74
2022/12/15 01:48:40;;;;;;;12.95;8.23;;;;;;;;;;5092541;27;20039;-74
2022/12/15 01:51:25;;;;;;;15.00;7.85;;;;;;;;;;5086445;27;20046;-75
2022/12/15 01:54:03;;;;;;;11.73;6.90;;;;;;;;;;5093618;27;20050;-74
2022/12/15 01:56:31;;;;;;;11.95;7.63;;;;;;;;;;5089189;27;20085;-74
2022/12/15 01:59:00;;;;;;;12.90;7.05;;;;;;;;;;5097037;27;20043;-74
2022/12/15 02:01:26;;;;;;;12.23;7.65;;;;;;;;;;5080857;27;20124;-74
2022/12/15 02:03:52;;;;;;;13.38;8.40;;;;;;;;;;5094718;27;20053;-74
2022/12/15 02:06:20;;;;;;;10.63;6.43;;;;;;;;;;5090966;27;20047;-74
2022/12/15 02:08:47;;;;;;;13.75;7.53;;;;;;;;;;5094728;27;20660;-74
2022/12/15 02:11:32;;;;;;;14.82;7.30;;;;;;;;;;5090996;27;20125;-74
2022/12/15 02:14:09;;;;;;;14.75;7.90;;;;;;;;;;5095096;27;20042;-74
2022/12/15 02:16:35;;;;;;;14.13;7.88;;;;;;;;;;5111312;27;20053;-74
2022/12/15 02:19:04;;;;;;;12.75;7.55;;;;;;;;;;5094596;27;20075;-74
2022/12/15 02:21:41;;;;;;;13.15;7.53;;;;;;;;;;5108386;27;20038;-74
2022/12/15 02:24:23;;;;;;;13.85;7.50;;;;;;;;;;5111959;27;20049;-74
2022/12/15 02:26:58;;;;;;;14.70;7.40;;;;;;;;;;5111415;27;20035;-74
2022/12/15 02:29:30;;;;;;;11.02;7.53;;;;;;;;;;5095611;27;20058;-74
2022/12/15 02:31:56;;;;;;;16.38;7.97;;;;;;;;;;5093632;27;20047;-74
2022/12/15 02:34:40;;;;;;;12.73;7.60;;;;;;;;;;5100836;27;20317;-74
2022/12/15 02:37:10;;;;;;;13.25;7.32;;;;;;;;;;5095417;27;20043;-74
2022/12/15 02:39:36;;;;;;;13.55;6.68;;;;;;;;;;5101093;27;20042;-74
2022/12/15 02:42:02;;;;;;;10.68;6.78;;;;;;;;;;5097429;27;20131;-73
2022/12/15 02:44:34;;;;;;;13.93;7.00;;;;;;;;;;5081546;27;20038;-74
2022/12/15 02:47:06;;;;;;;15.88;6.68;;;;;;;;;;5099438;27;20502;-74
2022/12/15 02:49:35;;;;;;;12.55;7.03;;;;;;;;;;5086602;27;20909;-74
2022/12/15 02:52:10;;;;;;;11.57;7.05;;;;;;;;;;5100362;27;21884;-74
2022/12/15 02:55:06;;;;;;;10.25;5.90;;;;;;;;;;5102310;27;20149;-74
2022/12/15 02:57:41;;;;;;;15.15;5.43;;;;;;;;;;5052863;27;20056;-74
2022/12/15 03:00:09;;;;;;;10.65;6.35;;;;;;;;;;5093423;27;21297;-74
2022/12/15 03:02:37;;;;;;;11.23;6.43;;;;;;;;;;5098251;27;20046;-74
2022/12/15 03:05:04;;;;;;;9.27;5.20;;;;;;;;;;5095542;27;20043;-74
2022/12/15 03:07:30;;;;;;;21.80;6.82;;;;;;;;;;5082848;27;20047;-74
2022/12/15 03:09:57;;;;;;;10.57;4.03;;;;;;;;;;5090805;27;20034;-74
2022/12/15 03:12:23;;;;;;;9.57;3.72;;;;;;;;;;5093527;27;20135;-74
2022/12/15 03:14:49;;;;;;;11.30;3.33;;;;;;;;;;5096347;27;20059;-74
2022/12/15 03:17:15;;;;;;;8.05;2.45;;;;;;;;;;5095856;27;20237;-74
2022/12/15 03:19:41;;;;;;;9.40;2.40;;;;;;;;;;5112695;27;20042;-74
2022/12/15 03:22:08;;;;;;;12.38;1.90;;;;;;;;;;5096097;27;20142;-74
2022/12/15 03:24:34;;;;;;;3.75;1.58;;;;;;;;;;5078315;27;20054;-74
2022/12/15 03:27:00;;;;;;;4.82;1.50;;;;;;;;;;5087241;27;20132;-74
2022/12/15 03:29:26;;;;;;;5.70;1.27;;;;;;;;;;5086449;27;21393;-74
2022/12/15 03:31:52;;;;;;;5.93;1.35;;;;;;;;;;5086659;27;20125;-74
2022/12/15 03:34:18;;;;;;;4.85;0.98;;;;;;;;;;5089332;27;20071;-75
2022/12/15 03:36:44;;;;;;;2.10;0.90;;;;;;;;;;5078285;27;20078;-74
2022/12/15 03:39:11;;;;;;;6.57;1.33;;;;;;;;;;5087731;27;20088;-74
2022/12/15 03:41:37;;;;;;;3.03;0.65;;;;;;;;;;5090055;27;20108;-74
2022/12/15 03:44:03;;;;;;;6.40;0.85;;;;;;;;;;5087504;27;20051;-74
2022/12/15 03:46:29;;;;;;;4.18;0.70;;;;;;;;;;5075344;27;20075;-74
2022/12/15 03:48:55;;;;;;;4.30;0.93;;;;;;;;;;5089213;27;20043;-74
2022/12/15 03:51:21;;;;;;;8.52;1.40;;;;;;;;;;5079986;27;20047;-74
2022/12/15 03:53:48;;;;;;;6.15;1.83;;;;;;;;;;5081549;27;20173;-74
2022/12/15 03:56:14;;;;;;;5.28;1.60;;;;;;;;;;5067865;27;20057;-74
2022/12/15 03:58:40;;;;;;;6.28;1.83;;;;;;;;;;5064075;27;20087;-74
2022/12/15 04:01:26;;;;;;;5.70;2.05;;;;;;;;;;5078076;27;21902;-74
2022/12/15 04:03:52;;;;;;;11.15;2.17;;;;;;;;;;5078235;27;20105;-73
2022/12/15 04:06:18;;;;;;;6.07;2.10;;;;;;;;;;5081285;27;21879;-74
2022/12/15 04:08:44;;;;;;;6.50;1.80;;;;;;;;;;5090264;27;20166;-74
2022/12/15 04:11:10;;;;;;;10.95;2.55;;;;;;;;;;5092781;27;20436;-74
2022/12/15 04:13:36;;;;;;;5.65;2.45;;;;;;;;;;5090961;27;20661;-74
2022/12/15 04:16:03;;;;;;;7.72;2.05;;;;;;;;;;5075449;27;20470;-74
2022/12/15 04:18:29;;;;;;;3.33;2.03;;;;;;;;;;5089667;27;20035;-74
2022/12/15 04:20:55;;;;;;;8.40;2.58;;;;;;;;;;5091706;27;20168;-73
2022/12/15 04:23:21;;;;;;;6.95;2.85;;;;;;;;;;5080462;28;20035;-74
2022/12/15 05:31:57;;;;;;;6.28;3.83;;;;;;;;;;5094671;27;20193;-75
2022/12/15 05:34:31;;;;;;;5.97;3.72;;;;;;;;;;5093376;27;20042;-75
2022/12/15 05:36:57;;;;;;;7.10;3.83;;;;;;;;;;5088288;27;20074;-75
2022/12/15 05:39:24;;;;;;;13.18;4.22;;;;;;;;;;5090196;27;20047;-76
2022/12/15 05:41:50;;;;;;;10.98;5.45;;;;;;;;;;5090775;27;20627;-73
2022/12/15 05:44:16;;;;;;;13.75;4.78;;;;;;;;;;5089408;27;20070;-74
2022/12/15 05:46:43;;;;;;;7.60;3.38;;;;;;;;;;5095297;27;20051;-75
2022/12/15 05:49:11;;;;;;;11.02;5.93;;;;;;;;;;5114319;27;20242;-75
2022/12/15 05:51:37;;;;;;;12.98;5.45;;;;;;;;;;5091962;27;20046;-74
2022/12/15 05:54:04;;;;;;;11.40;6.28;;;;;;;;;;5092114;27;20047;-75
2022/12/15 05:56:30;;;;;;;15.02;6.13;;;;;;;;;;5097806;27;20074;-74
2022/12/15 05:58:56;;;;;;;10.55;5.45;;;;;;;;;;5100190;27;20506;-73
2022/12/15 06:01:23;;;;;;;15.88;7.00;;;;;;;;;;5098692;27;20047;-73
2022/12/15 06:03:49;;;;;;;13.40;9.85;;;;;;;;;;5101266;27;20371;-73
2022/12/15 06:06:15;;;;;;;14.43;7.47;;;;;;;;;;5100922;27;20434;-73
2022/12/15 06:08:42;;;;;;;16.92;9.07;;;;;;;;;;5100664;27;20043;-73
2022/12/15 06:11:11;;;;;;;15.70;8.98;;;;;;;;;;5098930;27;20043;-73
2022/12/15 06:13:37;;;;;;;15.23;8.75;;;;;;;;;;5082684;27;20045;-73
2022/12/15 06:16:07;;;;;;;11.05;6.88;;;;;;;;;;5100779;27;20057;-73
2022/12/15 06:18:37;;;;;;;12.25;6.20;;;;;;;;;;5118706;27;20403;-73
2022/12/15 06:21:03;;;;;;;14.95;6.78;;;;;;;;;;5089799;27;20092;-73
2022/12/15 06:23:31;;;;;;;14.05;8.18;;;;;;;;;;5102272;27;20035;-73
2022/12/15 06:25:58;;;;;;;11.70;6.07;;;;;;;;;;5103045;27;20041;-73
2022/12/15 06:28:24;;;;;;;9.77;6.57;;;;;;;;;;5102426;27;20043;-73
2022/12/15 06:30:55;;;;;;;15.35;7.80;;;;;;;;;;5100480;27;20046;-73
2022/12/15 06:33:21;;;;;;;14.07;5.75;;;;;;;;;;5099317;27;20041;-73
2022/12/15 06:35:48;;;;;;;16.17;7.72;;;;;;;;;;5101610;27;20042;-73
2022/12/15 06:38:15;;;;;;;15.18;6.90;;;;;;;;;;5121126;27;20043;-73
2022/12/15 06:40:41;;;;;;;19.63;6.50;;;;;;;;;;5086673;27;20050;-74
2022/12/15 06:43:08;;;;;;;10.77;6.88;;;;;;;;;;5099745;27;20513;-73
2022/12/15 06:45:34;;;;;;;11.32;5.40;;;;;;;;;;5096642;27;20046;-74
2022/12/15 06:48:00;;;;;;;10.90;6.70;;;;;;;;;;5096328;27;20113;-73
2022/12/15 06:50:27;;;;;;;14.27;7.47;;;;;;;;;;5081994;27;20057;-73
2022/12/15 06:52:53;;;;;;;11.30;6.60;;;;;;;;;;5080423;27;20841;-76
2022/12/15 06:55:19;;;;;;;7.53;5.32;;;;;;;;;;5094936;27;20046;-76
2022/12/15 06:57:47;;;;;;;10.27;6.13;;;;;;;;;;5081302;27;20054;-76
2022/12/15 07:00:14;;;;;;;18.75;7.22;;;;;;;;;;5092938;27;20072;-76
2022/12/15 07:02:41;;;;;;;8.55;5.10;;;;;;;;;;5100528;27;20043;-76
2022/12/15 07:05:08;;;;;;;14.07;8.15;;;;;;;;;;5101219;27;20109;-76
2022/12/15 07:07:34;;;;;;;16.67;7.43;;;;;;;;;;5082383;27;20046;-76
2022/12/15 07:10:00;;;;;;;11.77;6.05;;;;;;;;;;5094233;27;20050;-76
2022/12/15 07:12:26;;;;;;;11.60;6.90;;;;;;;;;;5101403;27;20049;-76
2022/12/15 07:14:52;;;;;;;17.85;7.60;;;;;;;;;;5094539;27;20071;-76
2022/12/15 07:17:18;;;;;;;9.18;5.65;;;;;;;;;;5093990;27;20047;-76
2022/12/15 07:19:44;;;;;;;15.57;7.45;;;;;;;;;;5099722;27;24146;-76
2022/12/15 07:22:11;;;;;;;13.75;7.10;;;;;;;;;;5090859;27;20166;-76
2022/12/15 07:24:37;;;;;;;11.88;5.93;;;;;;;;;;5094688;27;20042;-76
2022/12/15 07:27:03;;;;;;;13.48;6.88;;;;;;;;;;5096039;27;21736;-76
2022/12/15 07:29:29;;;;;;;13.30;7.82;;;;;;;;;;5072319;27;20059;-76
2022/12/15 07:31:55;;;;;;;13.27;6.80;;;;;;;;;;5099724;27;20097;-76
2022/12/15 07:34:21;;;;;;;19.10;7.43;;;;;;;;;;5084539;27;20051;-76
2022/12/15 07:36:47;;;;;;;16.98;7.57;;;;;;;;;;5099274;27;20046;-76
2022/12/15 07:39:14;;;;;;;13.35;7.10;;;;;;;;;;5102169;27;20054;-77
2022/12/15 07:41:41;;;;;;;18.23;6.93;;;;;;;;;;5102355;27;20133;-76
2022/12/15 07:44:07;;;;;;;13.25;7.50;;;;;;;;;;5101305;27;20038;-76
2022/12/15 07:46:33;;;;;;;13.80;6.85;;;;;;;;;;5102212;27;20039;-76
2022/12/15 07:48:59;;;;;;;11.77;6.18;;;;;;;;;;5101226;27;20039;-76
2022/12/15 07:51:26;;;;;;;11.73;6.35;;;;;;;;;;5084528;27;20038;-76
2022/12/15 07:53:52;;;;;;;12.48;5.60;;;;;;;;;;5084479;27;20096;-76
2022/12/15 07:56:19;;;;;;;7.72;4.75;;;;;;;;;;5108347;27;20053;-76
2022/12/15 07:58:45;;;;;;;11.52;4.40;;;;;;;;;;5102153;27;20046;-76
2022/12/15 08:01:12;;;;;;;10.73;5.50;;;;;;;;;;5101429;27;20149;-76
2022/12/15 08:03:38;;;;;;;11.63;5.25;;;;;;;;;;5098313;27;20043;-76
2022/12/15 08:06:11;;;;;;;8.60;5.18;;;;;;;;;;5098047;27;21271;-75
2022/12/15 08:08:37;;;;;;;10.45;5.32;;;;;;;;;;5104430;27;20031;-76
2022/12/15 08:11:08;;;;;;;11.57;5.82;;;;;;;;;;5106243;27;20045;-76
2022/12/15 08:13:34;;;;;;;13.77;5.97;;;;;;;;;;5101771;27;20042;-76
2022/12/15 08:16:00;;;;;;;10.68;5.95;;;;;;;;;;5103290;27;20035;-76
2022/12/15 08:18:26;;;;;;;12.07;5.93;;;;;;;;;;5103932;27;20157;-76
2022/12/15 08:20:53;;;;;;;13.35;6.70;;;;;;;;;;5103998;27;20049;-76
2022/12/15 08:23:19;;;;;;;12.15;6.68;;;;;;;;;;5101968;27;20435;-76
2022/12/15 08:25:45;;;;;;;14.88;6.55;;;;;;;;;;5091050;27;21088;-76
2022/12/15 08:28:11;;;;;;;13.85;6.55;;;;;;;;;;5105276;27;20042;-76
2022/12/15 08:30:39;;;;;;;12.27;6.82;;;;;;;;;;5101926;27;20146;-76
2022/12/15 08:33:05;;;;;;;9.77;6.00;;;;;;;;;;5097672;27;20074;-76
2022/12/15 08:35:31;;;;;;;13.00;6.13;;;;;;;;;;5099205;27;20046;-76
2022/12/15 08:37:57;;;;;;;12.15;6.32;;;;;;;;;;5101469;27;20202;-76
2022/12/15 08:40:24;;;;;;;16.60;7.25;;;;;;;;;;5098895;28;20039;-76
2022/12/15 08:42:50;;;;;;;12.60;5.75;;;;;;;;;;5102131;28;20661;-76
2022/12/15 08:45:16;;;;;;;14.35;6.45;;;;;;;;;;5101419;28;20145;-76
2022/12/15 08:47:42;;;;;;;12.15;6.90;;;;;;;;;;5103189;28;20078;-76
2022/12/15 08:50:08;;;;;;;18.63;6.65;;;;;;;;;;5078674;28;20039;-76
2022/12/15 08:52:34;;;;;;;11.55;5.35;;;;;;;;;;5094738;28;20153;-75
2022/12/15 08:55:01;;;;;;;9.73;5.60;;;;;;;;;;5096233;27;20170;-77
2022/12/15 08:57:27;;;;;;;13.45;6.22;;;;;;;;;;5098239;28;20062;-76
2022/12/15 08:59:53;;;;;;;11.60;5.80;;;;;;;;;;5101921;27;20127;-76
2022/12/15 09:02:20;;;;;;;10.10;6.40;;;;;;;;;;5103202;28;20046;-75
2022/12/15 09:04:46;;;;;;;15.20;7.03;;;;;;;;;;5100966;28;20063;-76
2022/12/15 09:07:12;;;;;;;15.02;6.55;;;;;;;;;;5099220;27;20039;-76
2022/12/15 09:09:38;;;;;;;16.95;6.65;;;;;;;;;;5098158;28;20054;-76
2022/12/15 09:12:04;;;;;;;13.70;6.95;;;;;;;;;;5100122;28;20039;-76
2022/12/15 09:14:30;;;;;;;11.10;6.32;;;;;;;;;;5100622;27;20517;-76
2022/12/15 09:16:56;;;;;;;10.10;5.28;;;;;;;;;;5101238;28;20047;-76
2022/12/15 09:19:24;;;;;;;11.13;5.28;;;;;;;;;;5102693;27;20183;-76
2022/12/15 09:21:50;;;;;;;12.73;6.10;;;;;;;;;;5104085;27;20569;-75
2022/12/15 09:24:16;;;;;;;11.77;6.63;;;;;;;;;;5102244;27;20483;-76
2022/12/15 09:26:43;;;;;;;13.18;6.30;;;;;;;;;;5100936;27;20079;-76
2022/12/15 09:29:13;;;;;;;8.38;5.57;;;;;;;;;;5101030;27;20104;-75
2022/12/15 09:31:39;;;;;;;12.15;6.40;;;;;;;;;;5102986;27;20055;-75
2022/12/15 09:34:05;;;;;;;11.18;5.80;;;;;;;;;;5109818;27;20053;-76
2022/12/15 09:36:32;;;;;;;9.23;4.90;;;;;;;;;;5104592;27;20601;-76
2022/12/15 09:38:58;;;;;;;11.77;5.68;;;;;;;;;;5104239;27;20132;-76
2022/12/15 09:41:26;;;;;;;19.25;6.90;;;;;;;;;;5105522;27;20512;-75
2022/12/15 09:44:01;;;;;;;11.85;6.55;;;;;;;;;;5107342;27;20136;-75
2022/12/15 09:46:27;;;;;;;16.60;6.72;;;;;;;;;;5104750;27;20074;-76
2022/12/15 09:48:55;;;;;;;8.30;4.72;;;;;;;;;;5101252;27;20130;-76
2022/12/15 09:51:23;;;;;;;12.20;5.65;;;;;;;;;;5119663;27;20581;-76
2022/12/15 09:53:49;;;;;;;8.60;5.50;;;;;;;;;;5099868;27;20502;-75
2022/12/15 09:56:20;;;;;;;18.02;7.07;;;;;;;;;;5097896;27;20511;-76
2022/12/15 09:58:49;;;;;;;6.47;4.53;;;;;;;;;;5100982;27;20043;-76
2022/12/15 10:01:23;;;;;;;10.20;5.20;;;;;;;;;;5102215;27;20042;-75
2022/12/15 10:03:54;;;;;;;15.57;6.25;;;;;;;;;;5092547;27;20447;-75
2022/12/15 10:06:24;;;;;;;14.25;5.93;;;;;;;;;;5088300;27;20837;-75
2022/12/15 10:08:55;;;;;;;10.18;5.78;;;;;;;;;;5105963;27;20448;-75
2022/12/15 10:11:41;;;;;;;13.65;5.95;;;;;;;;;;5104442;27;20930;-75
2022/12/15 10:14:10;;;;;;;6.60;5.15;;;;;;;;;;5065238;27;20051;-75
2022/12/15 10:16:55;;;;;;;11.32;6.00;;;;;;;;;;5100720;27;20095;-75
2022/12/15 10:19:26;;;;;;;10.93;5.45;;;;;;;;;;5100778;27;20050;-75
2022/12/15 10:21:52;;;;;;;11.23;5.65;;;;;;;;;;5101197;27;20053;-76
2022/12/15 10:24:19;;;;;;;11.95;5.38;;;;;;;;;;5100271;27;21052;-76
2022/12/15 10:26:49;;;;;;;11.65;6.18;;;;;;;;;;5096992;27;20050;-76
2022/12/15 10:29:22;;;;;;;9.75;4.65;;;;;;;;;;5100322;27;22023;-76
2022/12/15 10:31:58;;;;;;;10.38;5.05;;;;;;;;;;5103751;27;20561;-76
2022/12/15 10:34:36;;;;;;;16.75;6.07;;;;;;;;;;5102212;27;21197;-76
2022/12/15 10:37:03;;;;;;;13.30;5.80;;;;;;;;;;5102200;27;20051;-76
2022/12/15 10:39:37;;;;;;;12.18;5.75;;;;;;;;;;5101546;27;20039;-75
2022/12/15 10:42:12;;;;;;;9.55;5.63;;;;;;;;;;5097231;27;20049;-76
2022/12/15 10:44:40;;;;;;;9.07;4.47;;;;;;;;;;5102760;27;20048;-76
2022/12/15 10:47:30;;;;;;;10.20;5.13;;;;;;;;;;5102709;27;20123;-76
2022/12/15 10:50:15;;;;;;;11.77;4.70;;;;;;;;;;5090170;27;20674;-76
2022/12/15 10:52:41;;;;;;;10.98;4.88;;;;;;;;;;5103805;27;20039;-76
2022/12/15 10:55:26;;;;;;;9.95;5.32;;;;;;;;;;5106531;27;20389;-76
2022/12/15 10:58:00;;;;;;;8.60;5.07;;;;;;;;;;5102309;27;20054;-76
2022/12/15 11:00:31;;;;;;;13.52;4.90;;;;;;;;;;5100993;27;20055;-77
2022/12/15 11:02:57;;;;;;;7.10;4.55;;;;;;;;;;5102544;27;20039;-76
2022/12/15 11:05:24;;;;;;;7.10;4.60;;;;;;;;;;5084194;27;20057;-76
2022/12/15 11:07:51;;;;;;;12.52;5.30;;;;;;;;;;5097002;27;20043;-76
2022/12/15 11:10:22;;;;;;;11.07;5.25;;;;;;;;;;5099133;27;20039;-76
2022/12/15 11:13:00;;;;;;;10.18;4.75;;;;;;;;;;5100562;27;20043;-76
2022/12/15 11:15:37;;;;;;;13.45;5.18;;;;;;;;;;5086624;27;20164;-76
2022/12/15 11:18:31;;;;;;;13.13;5.72;;;;;;;;;;5101801;27;20077;-75
2022/12/15 11:21:12;;;;;;;9.52;4.30;;;;;;;;;;5100231;27;20051;-76
2022/12/15 11:23:47;;;;;;;9.95;5.22;;;;;;;;;;5092381;27;20463;-76
2022/12/15 11:26:19;;;;;;;10.35;4.93;;;;;;;;;;5101695;27;21750;-76
2022/12/15 11:28:50;;;;;;;8.65;4.57;;;;;;;;;;5101542;27;20169;-76
2022/12/15 11:31:16;;;;;;;8.30;4.13;;;;;;;;;;5101487;27;20051;-76
2022/12/15 11:33:42;;;;;;;8.93;4.95;;;;;;;;;;5104329;27;20048;-75
2022/12/15 11:36:18;;;;;;;11.00;4.75;;;;;;;;;;5102476;27;20949;-75
2022/12/15 11:38:54;;;;;;;8.35;4.80;;;;;;;;;;5101760;27;20049;-75
2022/12/15 11:41:20;;;;;;;10.65;5.28;;;;;;;;;;5100071;27;20201;-75
2022/12/15 11:43:57;;;;;;;7.68;4.63;;;;;;;;;;5098126;27;20058;-75
2022/12/15 11:46:43;;;;;;;7.72;4.50;;;;;;;;;;5097030;27;20053;-76
2022/12/15 11:49:09;;;;;;;10.65;5.53;;;;;;;;;;5098051;27;20759;-74
2022/12/15 11:51:35;;;;;;;10.57;4.10;;;;;;;;;;5095568;27;20054;-75
2022/12/15 11:54:20;;;;;;;11.00;4.35;;;;;;;;;;5100195;27;20071;-75
2022/12/15 11:56:56;;;;;;;9.57;4.93;;;;;;;;;;5095893;27;20047;-75
2022/12/15 11:59:33;;;;;;;10.00;4.88;;;;;;;;;;5098414;27;20052;-76
2022/12/15 12:01:59;;;;;;;10.38;4.53;;;;;;;;;;5097930;27;20418;-76
2022/12/15 12:04:49;;;;;;;11.40;4.97;;;;;;;;;;5097388;27;20036;-76
2022/12/15 12:07:50;;;;;;;11.70;5.03;;;;;;;;;;5065794;27;20095;-76
2022/12/15 12:10:22;;;;;;;9.38;5.97;;;;;;;;;;5028110;28;20052;-76
2022/12/15 12:12:51;;;;;;;11.65;4.68;;;;;;;;;;5092348;27;20205;-76
2022/12/15 12:15:24;;;;;;;10.00;5.43;;;;;;;;;;5098199;27;20043;-76
2022/12/15 12:17:54;;;;;;;8.65;4.93;;;;;;;;;;5097807;27;20650;-75
2022/12/15 12:20:23;;;;;;;10.68;5.18;;;;;;;;;;5098687;27;20517;-76
2022/12/15 12:23:04;;;;;;;10.95;4.72;;;;;;;;;;5101508;27;20094;-76
2022/12/15 12:25:36;;;;;;;11.18;4.72;;;;;;;;;;5099691;27;20039;-76
2022/12/15 12:28:05;;;;;;;9.10;5.28;;;;;;;;;;5101071;27;20047;-76
2022/12/15 12:30:40;;;;;;;9.93;4.88;;;;;;;;;;5114129;27;20108;-76
2022/12/15 12:33:09;;;;;;;9.25;4.97;;;;;;;;;;5104409;27;21083;-76
2022/12/15 12:35:36;;;;;;;7.90;5.18;;;;;;;;;;5100437;27;20080;-78
2022/12/15 12:38:03;;;;;;;12.18;5.22;;;;;;;;;;5102789;27;20047;-75
2022/12/15 12:40:30;;;;;;;10.07;5.07;;;;;;;;;;5104556;27;20522;-75
2022/12/15 12:42:57;;;;;;;7.68;4.82;;;;;;;;;;5104813;27;20173;-75
2022/12/15 12:45:29;;;;;;;10.25;5.13;;;;;;;;;;5104988;27;20129;-76
2022/12/15 12:47:57;;;;;;;18.88;5.00;;;;;;;;;;5101835;27;20039;-76
2022/12/15 12:50:24;;;;;;;9.35;4.78;;;;;;;;;;5104784;27;20463;-75
2022/12/15 12:52:55;;;;;;;11.38;5.28;;;;;;;;;;5105393;27;21657;-75
2022/12/15 12:55:22;;;;;;;11.68;5.72;;;;;;;;;;5104273;27;20042;-75
2022/12/15 12:57:48;;;;;;;11.52;5.00;;;;;;;;;;5109810;27;20077;-75
2022/12/15 13:00:28;;;;;;;10.88;4.72;;;;;;;;;;5108862;27;20041;-75
2022/12/15 13:02:56;;;;;;;11.45;5.38;;;;;;;;;;5105497;27;20047;-75
2022/12/15 13:05:24;;;;;;;12.88;6.00;;;;;;;;;;5105079;27;21981;-75
2022/12/15 13:08:05;;;;;;;8.90;4.65;;;;;;;;;;5126446;27;20427;-75
2022/12/15 13:10:32;;;;;;;11.82;5.40;;;;;;;;;;5105766;27;20038;-75
2022/12/15 13:12:59;;;;;;;16.42;6.15;;;;;;;;;;5102927;27;20046;-75
2022/12/15 13:15:28;;;;;;;12.85;5.60;;;;;;;;;;5100124;27;20062;-74
2022/12/15 13:17:55;;;;;;;14.85;6.25;;;;;;;;;;5108276;27;20549;-75
2022/12/15 13:20:23;;;;;;;10.98;5.30;;;;;;;;;;5109895;27;20062;-74
2022/12/15 13:22:49;;;;;;;11.70;5.45;;;;;;;;;;5108963;27;20043;-75
2022/12/15 13:25:28;;;;;;;13.15;5.50;;;;;;;;;;5105690;27;20096;-75
2022/12/15 13:27:58;;;;;;;10.75;5.55;;;;;;;;;;5107357;27;20043;-75
2022/12/15 13:30:24;;;;;;;11.50;5.75;;;;;;;;;;5106946;27;20055;-75
2022/12/15 13:32:54;;;;;;;13.35;4.60;;;;;;;;;;5105185;27;20053;-75
2022/12/15 13:35:23;;;;;;;13.75;5.65;;;;;;;;;;5106262;27;20118;-75
2022/12/15 13:37:52;;;;;;;8.88;4.65;;;;;;;;;;5107203;27;20043;-75
2022/12/15 13:40:24;;;;;;;11.35;5.70;;;;;;;;;;5104642;27;20042;-75
2022/12/15 13:42:57;;;;;;;9.70;4.85;;;;;;;;;;5092214;27;20086;-75
2022/12/15 13:45:35;;;;;;;8.07;4.70;;;;;;;;;;5109091;27;20106;-75
2022/12/15 13:48:05;;;;;;;15.75;6.78;;;;;;;;;;5091835;27;20046;-75
2022/12/15 13:50:44;;;;;;;11.93;5.50;;;;;;;;;;5107557;27;20187;-75
2022/12/15 13:53:15;;;;;;;9.80;4.80;;;;;;;;;;5107988;27;20035;-75
2022/12/15 13:55:50;;;;;;;12.10;4.93;;;;;;;;;;5106887;27;20204;-76
2022/12/15 13:58:17;;;;;;;12.75;5.45;;;;;;;;;;5126189;27;20042;-76
2022/12/15 14:01:00;;;;;;;8.65;5.10;;;;;;;;;;5125769;27;20038;-76
2022/12/15 14:03:26;;;;;;;9.88;4.78;;;;;;;;;;5107538;27;20038;-75
2022/12/15 14:05:56;;;;;;;11.10;5.53;;;;;;;;;;5106583;27;20050;-75
2022/12/15 14:08:23;;;;;;;10.43;5.65;;;;;;;;;;5089824;27;20071;-68
2022/12/15 14:10:53;;;;;;;12.10;5.18;;;;;;;;;;5105991;27;20669;-68
2022/12/15 14:13:20;;;;;;;10.32;5.00;;;;;;;;;;5103388;27;20054;-68
2022/12/15 14:15:50;;;;;;;6.32;4.90;;;;;;;;;;5125474;27;20593;-68
2022/12/15 14:18:36;;;;;;;13.82;6.68;;;;;;;;;;5107309;27;20118;-68
2022/12/15 14:21:06;;;;;;;10.27;5.13;;;;;;;;;;5125838;27;20132;-68
2022/12/15 14:23:43;;;;;;;9.27;5.18;;;;;;;;;;5124634;27;20045;-68
2022/12/15 14:26:10;;;;;;;11.10;5.95;;;;;;;;;;5089148;27;20414;-76
2022/12/15 14:28:37;;;;;;;14.52;5.80;;;;;;;;;;5104081;27;20526;-75
2022/12/15 14:31:05;;;;;;;16.23;5.10;;;;;;;;;;5103967;27;20055;-76
2022/12/15 14:33:35;;;;;;;11.38;4.93;;;;;;;;;;5107612;27;20085;-76
2022/12/15 14:36:01;;;;;;;14.20;5.63;;;;;;;;;;5107190;27;20125;-75
2022/12/15 14:38:32;;;;;;;14.45;5.78;;;;;;;;;;5121322;27;20138;-75
2022/12/15 14:41:01;;;;;;;10.27;5.50;;;;;;;;;;5093929;27;22229;-76
2022/12/15 14:43:28;;;;;;;14.75;5.63;;;;;;;;;;5100272;27;20046;-75
2022/12/15 14:46:06;;;;;;;14.02;6.78;;;;;;;;;;5105904;27;20042;-75
2022/12/15 14:48:34;;;;;;;13.05;6.43;;;;;;;;;;5124809;27;20138;-75
2022/12/15 14:51:01;;;;;;;14.10;5.38;;;;;;;;;;5104915;27;20043;-75
2022/12/15 14:53:31;;;;;;;11.38;5.93;;;;;;;;;;5105223;27;20066;-75
2022/12/15 14:55:59;;;;;;;13.73;5.63;;;;;;;;;;5108432;27;20102;-75
2022/12/15 14:58:31;;;;;;;11.93;5.95;;;;;;;;;;5104783;27;20127;-75
2022/12/15 15:00:58;;;;;;;18.60;6.68;;;;;;;;;;5106931;27;20053;-76
2022/12/15 15:03:42;;;;;;;13.63;6.22;;;;;;;;;;5104030;27;20050;-75
2022/12/15 15:06:11;;;;;;;15.35;5.80;;;;;;;;;;5088912;27;20049;-76
2022/12/15 15:08:50;;;;;;;12.82;5.82;;;;;;;;;;5103443;27;20058;-75
2022/12/15 15:11:30;;;;;;;11.70;6.35;;;;;;;;;;5105518;27;20087;-75
2022/12/15 15:13:58;;;;;;;16.13;6.90;;;;;;;;;;5107291;27;20047;-75
2022/12/15 15:16:25;;;;;;;12.38;7.60;;;;;;;;;;5105162;27;20043;-75
2022/12/15 15:18:52;;;;;;;10.45;5.68;;;;;;;;;;5096446;27;20046;-75
2022/12/15 15:21:21;;;;;;;16.98;6.70;;;;;;;;;;5106781;27;20083;-75
2022/12/15 15:24:03;;;;;;;12.57;7.53;;;;;;;;;;5087489;27;20035;-75
2022/12/15 15:26:30;;;;;;;10.63;5.90;;;;;;;;;;5106565;27;20747;-75
2022/12/15 15:28:56;;;;;;;12.32;6.55;;;;;;;;;;5102018;27;20041;-75
2022/12/15 15:31:36;;;;;;;11.00;6.20;;;;;;;;;;5106334;27;20062;-75
2022/12/15 15:34:02;;;;;;;12.60;6.80;;;;;;;;;;5107666;27;20199;-75
2022/12/15 15:36:33;;;;;;;11.02;6.40;;;;;;;;;;5106956;27;20046;-74
2022/12/15 15:38:59;;;;;;;13.57;6.70;;;;;;;;;;5105429;27;20091;-75
2022/12/15 15:41:29;;;;;;;17.13;6.95;;;;;;;;;;5123831;27;20066;-75
2022/12/15 15:43:58;;;;;;;15.77;6.65;;;;;;;;;;5094779;27;20130;-75
2022/12/15 15:46:34;;;;;;;13.60;6.55;;;;;;;;;;5106258;27;20047;-75
2022/12/15 15:49:00;;;;;;;12.10;5.85;;;;;;;;;;5105668;27;20060;-75
2022/12/15 15:51:27;;;;;;;17.23;7.10;;;;;;;;;;5089766;27;20047;-75
2022/12/15 15:53:54;;;;;;;12.30;7.22;;;;;;;;;;5105789;27;20039;-75
2022/12/15 15:56:21;;;;;;;15.48;7.05;;;;;;;;;;5104509;27;20039;-77
2022/12/15 15:58:47;;;;;;;10.02;6.38;;;;;;;;;;5106562;27;20041;-77
2022/12/15 16:01:13;;;;;;;16.67;6.78;;;;;;;;;;5106817;27;20962;-77
2022/12/15 16:03:39;;;;;;;13.98;6.82;;;;;;;;;;5106485;27;20658;-77
2022/12/15 16:06:06;;;;;;;15.27;7.40;;;;;;;;;;5106955;27;20424;-77
2022/12/15 16:08:36;;;;;;;16.05;7.10;;;;;;;;;;5119310;27;20092;-77
2022/12/15 16:11:02;;;;;;;12.27;6.68;;;;;;;;;;5099676;27;20042;-77
2022/12/15 16:13:28;;;;;;;15.23;7.85;;;;;;;;;;5100665;27;20047;-77
2022/12/15 16:15:54;;;;;;;15.02;7.60;;;;;;;;;;5090234;27;20047;-75
2022/12/15 16:18:21;;;;;;;16.65;8.43;;;;;;;;;;5080624;27;21800;-76
2022/12/15 16:20:49;;;;;;;15.23;8.27;;;;;;;;;;5115739;27;20965;-77
2022/12/15 16:23:16;;;;;;;16.80;9.00;;;;;;;;;;5097964;27;20074;-76
2022/12/15 16:25:44;;;;;;;15.05;8.48;;;;;;;;;;5100585;27;20034;-76
2022/12/15 16:28:17;;;;;;;16.80;9.35;;;;;;;;;;5099172;27;20039;-75
2022/12/15 16:30:44;;;;;;;15.70;8.67;;;;;;;;;;5097572;27;20177;-76
2022/12/15 16:33:10;;;;;;;15.60;8.75;;;;;;;;;;5098425;27;20062;-76
2022/12/15 16:35:37;;;;;;;18.98;9.95;;;;;;;;;;5116401;27;20039;-76
2022/12/15 16:38:04;;;;;;;16.52;10.13;;;;;;;;;;5095953;27;20054;-76
2022/12/15 16:40:30;;;;;;;21.33;11.88;;;;;;;;;;5089625;27;20054;-75
2022/12/15 16:42:58;;;;;;;17.08;11.82;;;;;;;;;;5096921;27;20359;-77
2022/12/15 16:45:25;;;;;;;20.00;11.02;;;;;;;;;;5096171;27;20617;-76
2022/12/15 16:47:52;;;;;;;23.63;11.27;;;;;;;;;;5097296;27;20046;-76
2022/12/15 16:50:37;;;;;;;16.08;10.15;;;;;;;;;;5093461;27;20043;-76
2022/12/15 16:53:04;;;;;;;19.92;11.85;;;;;;;;;;5095175;27;20075;-76
2022/12/15 16:55:30;;;;;;;19.45;11.57;;;;;;;;;;5097170;27;20094;-76
2022/12/15 16:57:58;;;;;;;14.07;10.55;;;;;;;;;;5093570;27;20384;-76
2022/12/15 17:00:27;;;;;;;17.45;11.48;;;;;;;;;;5089650;27;20179;-75